createdAt,value
2022-08-30T00:01:05.378Z,9.73
2022-08-30T00:03:41.183Z,9.65
2022-08-30T00:06:10.035Z,10.25
2022-08-30T00:08:38.443Z,9.20
2022-08-30T00:11:09.973Z,9.73
2022-08-30T00:13:38.714Z,9.27
2022-08-30T00:16:07.065Z,9.77
2022-08-30T00:18:35.490Z,10.13
2022-08-30T00:21:05.052Z,9.80
2022-08-30T00:23:32.595Z,9.57
2022-08-30T00:25:59.936Z,9.95
2022-08-30T00:28:27.054Z,9.90
2022-08-30T00:30:54.230Z,9.85
2022-08-30T00:33:21.297Z,9.55
2022-08-30T00:35:48.352Z,8.77
2022-08-30T00:38:15.456Z,9.05
2022-08-30T00:40:45.021Z,9.10
2022-08-30T00:43:19.314Z,9.20
2022-08-30T00:45:47.263Z,9.52
2022-08-30T00:48:14.480Z,9.52
2022-08-30T00:50:48.444Z,10.05
2022-08-30T00:53:24.820Z,10.18
2022-08-30T00:55:54.018Z,9.60
2022-08-30T01:00:53.370Z,10.73
2022-08-30T01:03:20.392Z,10.00
2022-08-30T01:05:49.796Z,9.43
2022-08-30T01:08:16.715Z,9.75
2022-08-30T01:10:44.652Z,9.90
2022-08-30T01:13:14.010Z,9.48
2022-08-30T01:15:42.888Z,9.93
2022-08-30T01:18:11.605Z,10.75
2022-08-30T01:21:10.289Z,10.75
2022-08-30T01:23:40.502Z,10.90
2022-08-30T01:26:08.001Z,9.93
2022-08-30T01:28:35.493Z,10.48
2022-08-30T01:31:02.626Z,11.05
2022-08-30T01:33:30.051Z,9.80
2022-08-30T01:36:02.801Z,10.38
2022-08-30T01:38:40.618Z,10.45
2022-08-30T01:41:18.585Z,10.57
2022-08-30T01:43:45.795Z,10.65
2022-08-30T01:46:15.074Z,10.60
2022-08-30T01:48:50.349Z,10.38
2022-08-30T01:51:23.023Z,9.80
2022-08-30T01:53:50.156Z,10.18
2022-08-30T01:56:17.939Z,10.30
2022-08-30T01:58:45.571Z,10.27
2022-08-30T02:01:15.209Z,10.20
2022-08-30T02:03:44.442Z,11.07
2022-08-30T02:06:15.091Z,11.95
2022-08-30T02:08:42.749Z,13.23
2022-08-30T02:11:10.980Z,12.73
2022-08-30T02:13:40.150Z,13.40
2022-08-30T02:16:09.017Z,14.05
2022-08-30T02:18:38.633Z,14.10
2022-08-30T02:21:06.984Z,13.48
2022-08-30T02:23:34.303Z,14.68
2022-08-30T02:26:01.535Z,13.55
2022-08-30T02:28:29.260Z,12.98
2022-08-30T02:30:56.203Z,12.68
2022-08-30T02:33:23.512Z,12.55
2022-08-30T02:35:50.729Z,13.50
2022-08-30T02:38:19.945Z,11.63
2022-08-30T02:40:47.126Z,13.13
2022-08-30T02:43:14.725Z,13.20
2022-08-30T02:45:41.828Z,12.35
2022-08-30T02:48:09.772Z,12.82
2022-08-30T02:50:45.934Z,14.95
2022-08-30T02:53:16.200Z,12.73
2022-08-30T02:55:44.566Z,15.25
2022-08-30T02:58:11.658Z,15.38
2022-08-30T03:00:39.782Z,15.35
2022-08-30T03:03:07.656Z,15.90
2022-08-30T03:05:34.891Z,13.50
2022-08-30T03:08:05.074Z,13.38
2022-08-30T03:10:32.292Z,13.75
2022-08-30T03:12:59.193Z,14.57
2022-08-30T03:15:27.184Z,14.00
2022-08-30T03:17:55.469Z,15.23
2022-08-30T03:20:23.532Z,15.32
2022-08-30T03:22:50.906Z,14.05
2022-08-30T03:25:18.310Z,15.00
2022-08-30T03:27:45.144Z,14.07
2022-08-30T03:30:13.114Z,14.23
2022-08-30T03:32:41.451Z,15.32
2022-08-30T03:35:10.650Z,15.57
2022-08-30T03:37:37.629Z,14.25
2022-08-30T03:40:07.620Z,13.70
2022-08-30T03:42:35.716Z,12.77
2022-08-30T03:45:04.883Z,12.73
2022-08-30T03:49:58.784Z,13.30
2022-08-30T03:52:27.292Z,14.95
2022-08-30T03:54:54.319Z,14.77
2022-08-30T03:57:24.493Z,14.30
2022-08-30T03:59:52.089Z,13.90
2022-08-30T04:02:19.877Z,13.57
2022-08-30T04:04:47.033Z,14.13
2022-08-30T04:07:13.838Z,12.05
2022-08-30T04:09:41.915Z,11.73
2022-08-30T04:12:09.402Z,10.30
2022-08-30T04:14:36.295Z,10.73
2022-08-30T04:17:03.623Z,10.10
2022-08-30T04:19:30.440Z,10.00
2022-08-30T04:21:57.570Z,10.02
2022-08-30T04:24:25.557Z,9.55
2022-08-30T04:26:52.642Z,6.68
2022-08-30T04:29:19.454Z,7.22
2022-08-30T04:31:46.863Z,6.82
2022-08-30T04:34:15.128Z,5.97
2022-08-30T04:36:42.403Z,6.75
2022-08-30T04:39:17.333Z,6.55
2022-08-30T04:41:44.197Z,5.55
2022-08-30T04:44:14.219Z,5.75
2022-08-30T04:46:47.579Z,6.20
2022-08-30T04:49:14.457Z,6.13
2022-08-30T04:51:41.404Z,5.65
2022-08-30T04:54:08.552Z,4.97
2022-08-30T04:56:35.722Z,5.28
2022-08-30T04:59:03.602Z,5.45
2022-08-30T05:01:35.271Z,5.25
2022-08-30T05:04:12.077Z,4.70
2022-08-30T05:06:39.226Z,4.60
2022-08-30T05:09:06.244Z,4.60
2022-08-30T05:11:33.258Z,4.45
2022-08-30T05:14:00.643Z,4.65
2022-08-30T05:16:27.815Z,4.18
2022-08-30T05:18:54.953Z,4.60
2022-08-30T05:21:25.710Z,5.85
2022-08-30T05:23:58.533Z,4.88
2022-08-30T05:26:29.287Z,4.50
2022-08-30T05:28:56.379Z,4.82
2022-08-30T05:31:26.418Z,5.15
2022-08-30T05:33:55.326Z,5.18
2022-08-30T05:36:24.612Z,4.32
2022-08-30T05:38:51.646Z,4.70
2022-08-30T05:41:21.036Z,4.57
2022-08-30T05:46:19.908Z,4.50
2022-08-30T05:48:47.743Z,4.00
2022-08-30T05:51:18.653Z,4.30
2022-08-30T05:53:47.085Z,3.65
2022-08-30T05:56:17.361Z,4.05
2022-08-30T05:58:45.142Z,4.07
2022-08-30T06:01:34.419Z,3.50
2022-08-30T06:04:04.293Z,3.75
2022-08-30T06:06:33.013Z,3.65
2022-08-30T06:08:59.897Z,3.90
2022-08-30T06:11:27.967Z,3.65
2022-08-30T06:13:55.894Z,3.38
2022-08-30T06:16:26.029Z,3.38
2022-08-30T06:18:55.084Z,3.67
2022-08-30T06:21:28.761Z,3.35
2022-08-30T06:23:57.424Z,4.03
2022-08-30T06:26:25.700Z,3.25
2022-08-30T06:28:53.055Z,3.30
2022-08-30T06:31:22.247Z,3.47
2022-08-30T06:33:50.177Z,3.40
2022-08-30T06:36:20.876Z,3.80
2022-08-30T06:38:50.895Z,3.63
2022-08-30T06:41:22.374Z,3.47
2022-08-30T06:43:50.577Z,3.60
2022-08-30T06:46:21.060Z,3.88
2022-08-30T06:48:48.683Z,3.42
2022-08-30T06:51:20.897Z,3.25
2022-08-30T06:53:49.723Z,3.30
2022-08-30T06:56:17.625Z,3.90
2022-08-30T06:58:45.932Z,3.83
2022-08-30T07:01:16.166Z,4.40
2022-08-30T07:03:43.634Z,3.08
2022-08-30T07:06:11.220Z,8.95
2022-08-30T07:08:38.758Z,7.28
2022-08-30T07:11:07.694Z,18.02
2022-08-30T07:13:36.049Z,20.92
2022-08-30T07:16:10.731Z,13.07
2022-08-30T07:18:54.777Z,13.10
2022-08-30T07:21:26.555Z,9.25
2022-08-30T07:23:55.880Z,15.82
2022-08-30T07:26:35.322Z,45.22
2022-08-30T07:29:04.184Z,8.23
2022-08-30T07:31:31.214Z,4.03
2022-08-30T07:33:58.131Z,3.22
2022-08-30T07:36:25.690Z,46.13
2022-08-30T07:38:54.621Z,5.47
2022-08-30T07:41:32.735Z,118.88
2022-08-30T07:44:00.892Z,14.05
2022-08-30T07:46:28.297Z,34.70
2022-08-30T07:48:56.088Z,24.67
2022-08-30T07:51:26.633Z,3.08
2022-08-30T07:53:54.778Z,2.63
2022-08-30T07:56:22.837Z,3.55
2022-08-30T07:58:52.331Z,13.07
2022-08-30T08:01:21.333Z,2.70
2022-08-30T08:03:50.418Z,4.70
2022-08-30T08:06:20.448Z,2.83
2022-08-30T08:08:47.713Z,2.70
2022-08-30T08:11:29.435Z,2.80
2022-08-30T08:14:01.124Z,2.60
2022-08-30T08:16:30.659Z,2.33
2022-08-30T08:18:58.009Z,2.97
2022-08-30T08:21:26.132Z,3.38
2022-08-30T08:23:53.149Z,3.65
2022-08-30T08:26:21.208Z,3.25
2022-08-30T08:28:48.400Z,2.45
2022-08-30T08:34:06.382Z,3.15
2022-08-30T08:36:35.609Z,2.40
2022-08-30T08:39:05.118Z,2.33
2022-08-30T08:41:53.338Z,1.48
2022-08-30T08:44:28.443Z,2.25
2022-08-30T08:47:13.772Z,1.83
2022-08-30T08:49:44.417Z,1.80
2022-08-30T08:52:39.976Z,2.58
2022-08-30T08:55:13.645Z,2.47
2022-08-30T08:57:41.261Z,2.30
2022-08-30T09:00:11.437Z,2.03
2022-08-30T09:02:58.568Z,2.10
2022-08-30T09:05:29.736Z,2.20
2022-08-30T09:08:01.569Z,3.78
2022-08-30T09:10:49.253Z,2.88
2022-08-30T09:13:19.044Z,2.33
2022-08-30T09:18:20.034Z,2.30
2022-08-30T09:20:49.828Z,2.20
2022-08-30T09:23:17.369Z,2.33
2022-08-30T09:25:50.048Z,2.13
2022-08-30T09:28:23.137Z,2.60
2022-08-30T09:31:17.032Z,2.45
2022-08-30T09:34:01.868Z,2.40
2022-08-30T09:36:34.120Z,1.80
2022-08-30T09:39:04.252Z,2.33
2022-08-30T09:41:40.151Z,2.13
2022-08-30T09:44:25.366Z,1.80
2022-08-30T09:47:01.283Z,3.78
2022-08-30T09:49:43.225Z,2.60
2022-08-30T09:52:33.516Z,2.22
2022-08-30T09:55:21.279Z,2.28
2022-08-30T09:58:03.922Z,2.45
2022-08-30T10:00:39.046Z,2.05
2022-08-30T10:03:36.217Z,2.45
2022-08-30T10:06:24.860Z,2.30
2022-08-30T10:09:03.741Z,2.35
2022-08-30T10:11:49.173Z,2.80
2022-08-30T10:15:01.126Z,2.20
2022-08-30T10:17:59.938Z,2.50
2022-08-30T10:20:32.565Z,2.28
2022-08-30T10:23:25.170Z,5.22
2022-08-30T10:26:05.416Z,2.58
2022-08-30T10:28:43.697Z,2.55
2022-08-30T10:31:37.652Z,2.50
2022-08-30T10:34:27.224Z,2.53
2022-08-30T10:37:03.148Z,2.40
2022-08-30T10:39:37.267Z,2.13
2022-08-30T10:42:39.344Z,2.38
2022-08-30T10:45:15.210Z,2.30
2022-08-30T10:47:53.804Z,2.40
2022-08-30T10:50:28.616Z,2.30
2022-08-30T10:53:07.590Z,2.55
2022-08-30T10:55:49.870Z,2.10
2022-08-30T10:58:18.722Z,2.45
2022-08-30T11:03:52.411Z,2.90
2022-08-30T11:06:27.171Z,2.50
2022-08-30T11:09:07.325Z,2.58
2022-08-30T11:11:56.259Z,2.20
2022-08-30T11:14:25.552Z,2.55
2022-08-30T11:16:56.742Z,2.63
2022-08-30T11:19:23.533Z,2.28
2022-08-30T11:22:08.486Z,2.47
2022-08-30T11:25:10.195Z,2.30
2022-08-30T11:27:52.940Z,2.20
2022-08-30T11:30:26.454Z,2.40
2022-08-30T11:33:25.985Z,2.53
2022-08-30T11:38:26.706Z,2.63
2022-08-30T11:40:56.704Z,2.38
2022-08-30T11:43:36.658Z,2.28
2022-08-30T11:46:37.571Z,2.35
2022-08-30T11:49:13.958Z,2.20
2022-08-30T11:52:26.425Z,2.28
2022-08-30T11:55:02.898Z,2.05
2022-08-30T11:57:42.767Z,2.15
2022-08-30T12:00:25.161Z,2.20
2022-08-30T12:03:02.948Z,2.60
2022-08-30T12:05:40.051Z,2.22
2022-08-30T12:08:28.022Z,2.05
2022-08-30T12:11:03.446Z,2.72
2022-08-30T12:13:40.121Z,1.90
2022-08-30T12:16:14.923Z,2.22
2022-08-30T12:18:49.363Z,2.53
2022-08-30T12:21:22.659Z,2.03
2022-08-30T12:24:08.311Z,2.20
2022-08-30T12:26:41.157Z,2.35
2022-08-30T12:29:11.779Z,1.80
2022-08-30T12:31:46.638Z,2.00
2022-08-30T12:34:24.807Z,1.88
2022-08-30T12:36:58.067Z,1.92
2022-08-30T12:39:29.934Z,1.70
2022-08-30T12:42:12.408Z,1.98
2022-08-30T12:44:45.435Z,1.92
2022-08-30T12:47:18.167Z,1.88
2022-08-30T12:49:46.450Z,2.20
2022-08-30T12:52:31.411Z,2.38
2022-08-30T12:55:21.797Z,2.35
2022-08-30T12:58:10.177Z,2.30
2022-08-30T13:00:39.909Z,2.30
2022-08-30T13:03:32.973Z,2.33
2022-08-30T13:06:00.203Z,2.28
2022-08-30T13:08:38.251Z,4.38
2022-08-30T13:11:10.830Z,3.03
2022-08-30T13:13:44.449Z,2.40
2022-08-30T13:16:36.273Z,2.60
2022-08-30T13:19:25.377Z,4.38
2022-08-30T13:21:55.143Z,4.18
2022-08-30T13:24:25.517Z,3.00
2022-08-30T13:26:54.810Z,9.38
2022-08-30T13:29:26.518Z,3.38
2022-08-30T13:31:54.609Z,2.70
2022-08-30T13:34:22.872Z,3.50
2022-08-30T13:36:54.403Z,3.00
2022-08-30T13:39:22.007Z,3.45
2022-08-30T13:41:49.917Z,3.50
2022-08-30T13:44:18.665Z,3.10
2022-08-30T13:46:53.847Z,3.22
2022-08-30T13:49:45.782Z,3.17
2022-08-30T13:52:20.803Z,4.65
2022-08-30T13:54:57.066Z,3.20
2022-08-30T14:00:19.411Z,3.15
2022-08-30T14:02:54.701Z,2.92
2022-08-30T14:05:47.495Z,2.88
2022-08-30T14:11:01.779Z,2.70
2022-08-30T14:13:29.808Z,3.28
2022-08-30T14:18:46.900Z,3.17
2022-08-30T14:21:14.370Z,3.17
2022-08-30T14:23:41.168Z,3.13
2022-08-30T14:26:17.271Z,3.30
2022-08-30T14:28:44.982Z,3.40
2022-08-30T14:31:13.528Z,3.17
2022-08-30T14:33:40.478Z,3.20
2022-08-30T14:36:12.932Z,3.08
2022-08-30T14:38:43.985Z,2.97
2022-08-30T14:41:11.857Z,5.35
2022-08-30T14:43:42.532Z,3.45
2022-08-30T14:46:10.737Z,3.25
2022-08-30T14:48:38.547Z,3.40
2022-08-30T14:51:17.904Z,3.70
2022-08-30T14:53:46.536Z,3.85
2022-08-30T14:56:16.342Z,3.90
2022-08-30T14:58:43.392Z,4.00
2022-08-30T15:01:12.317Z,4.50
2022-08-30T15:03:41.272Z,4.68
2022-08-30T15:06:09.348Z,4.63
2022-08-30T15:08:38.406Z,4.18
2022-08-30T15:11:15.753Z,4.18
2022-08-30T15:13:45.947Z,3.85
2022-08-30T15:16:16.204Z,4.20
2022-08-30T15:18:44.019Z,3.85
2022-08-30T15:21:11.121Z,4.38
2022-08-30T15:23:39.187Z,4.63
2022-08-30T15:26:09.430Z,4.88
2022-08-30T15:28:36.899Z,4.45
2022-08-30T15:31:08.647Z,4.65
2022-08-30T15:33:37.639Z,5.07
2022-08-30T15:36:06.816Z,5.03
2022-08-30T15:38:34.921Z,4.20
2022-08-30T15:41:06.636Z,4.35
2022-08-30T15:43:34.781Z,4.10
2022-08-30T15:46:22.877Z,3.93
2022-08-30T15:48:52.213Z,4.40
2022-08-30T15:51:19.267Z,4.85
2022-08-30T15:53:46.576Z,4.50
2022-08-30T15:56:14.753Z,4.53
2022-08-30T15:58:42.962Z,4.45
2022-08-30T16:01:11.693Z,5.53
2022-08-30T16:03:41.631Z,5.35
2022-08-30T16:06:14.354Z,4.85
2022-08-30T16:08:42.011Z,5.25
2022-08-30T16:11:10.436Z,5.35
2022-08-30T16:13:37.418Z,5.57
2022-08-30T16:16:06.873Z,5.13
2022-08-30T16:18:35.246Z,5.57
2022-08-30T16:21:09.249Z,5.07
2022-08-30T16:23:38.045Z,5.57
2022-08-30T16:26:05.383Z,6.25
2022-08-30T16:28:32.496Z,7.63
2022-08-30T16:31:00.388Z,6.78
2022-08-30T16:33:29.895Z,6.18
2022-08-30T16:35:57.411Z,5.77
2022-08-30T16:38:26.619Z,5.85
2022-08-30T16:43:23.909Z,5.15
2022-08-30T16:45:51.076Z,4.93
2022-08-30T16:48:18.007Z,4.97
2022-08-30T16:50:45.960Z,4.80
2022-08-30T16:53:13.442Z,3.80
2022-08-30T16:55:41.725Z,4.32
2022-08-30T16:58:11.759Z,3.50
2022-08-30T17:00:40.763Z,4.00
2022-08-30T17:03:15.628Z,3.75
2022-08-30T17:05:43.385Z,3.90
2022-08-30T17:08:11.815Z,3.92
2022-08-30T17:10:43.642Z,4.00
2022-08-30T17:13:14.367Z,4.30
2022-08-30T17:15:41.218Z,4.32
2022-08-30T17:18:08.543Z,3.65
2022-08-30T17:20:35.614Z,3.97
2022-08-30T17:23:02.553Z,3.75
2022-08-30T17:25:33.814Z,4.00
2022-08-30T17:28:01.780Z,4.05
2022-08-30T17:30:28.867Z,4.32
2022-08-30T17:32:55.768Z,3.70
2022-08-30T17:35:24.161Z,3.83
2022-08-30T17:37:52.565Z,3.70
2022-08-30T17:40:19.952Z,3.92
2022-08-30T17:42:48.200Z,4.20
2022-08-30T17:45:17.203Z,4.15
2022-08-30T17:47:45.109Z,5.40
2022-08-30T17:50:13.815Z,4.13
2022-08-30T17:52:41.165Z,4.90
2022-08-30T17:55:09.246Z,6.15
2022-08-30T17:57:36.916Z,5.88
2022-08-30T18:00:07.865Z,7.25
2022-08-30T18:02:34.925Z,6.90
2022-08-30T18:05:04.890Z,6.53
2022-08-30T18:07:31.739Z,5.65
2022-08-30T18:09:59.438Z,5.15
2022-08-30T18:12:27.007Z,5.10
2022-08-30T18:14:54.032Z,5.97
2022-08-30T18:17:21.414Z,20.27
2022-08-30T18:19:49.136Z,53.60
2022-08-30T18:22:16.619Z,71.20
2022-08-30T18:24:45.066Z,60.60
2022-08-30T18:27:12.680Z,66.32
2022-08-30T18:29:40.476Z,55.40
2022-08-30T18:32:09.187Z,46.10
2022-08-30T18:34:36.585Z,42.38
2022-08-30T18:37:03.539Z,38.13
2022-08-30T18:39:34.548Z,27.58
2022-08-30T18:42:04.339Z,24.95
2022-08-30T18:44:33.107Z,19.60
2022-08-30T18:49:32.270Z,17.70
2022-08-30T18:52:01.246Z,18.67
2022-08-30T18:54:29.086Z,12.20
2022-08-30T18:56:56.070Z,12.38
2022-08-30T18:59:22.897Z,9.55
2022-08-30T19:02:02.750Z,8.95
2022-08-30T19:04:35.223Z,8.80
2022-08-30T19:07:05.362Z,17.00
2022-08-30T19:09:32.794Z,17.10
2022-08-30T19:11:59.644Z,15.32
2022-08-30T19:14:28.078Z,13.13
2022-08-30T19:16:56.384Z,12.63
2022-08-30T19:19:23.687Z,12.02
2022-08-30T19:21:51.780Z,14.95
2022-08-30T19:24:20.239Z,15.38
2022-08-30T19:26:48.202Z,13.20
2022-08-30T19:29:15.544Z,13.80
2022-08-30T19:31:43.841Z,14.13
2022-08-30T19:34:11.382Z,16.48
2022-08-30T19:36:39.153Z,16.67
2022-08-30T19:39:06.943Z,10.68
2022-08-30T19:41:33.933Z,9.90
2022-08-30T19:44:03.116Z,11.10
2022-08-30T19:46:31.182Z,12.20
2022-08-30T19:49:01.175Z,12.65
2022-08-30T19:51:28.404Z,11.52
2022-08-30T19:53:56.436Z,11.13
2022-08-30T19:56:26.283Z,9.90
2022-08-30T19:58:53.514Z,10.45
2022-08-30T20:01:32.690Z,9.93
2022-08-30T20:04:02.155Z,10.63
2022-08-30T20:06:32.504Z,10.35
2022-08-30T20:09:00.463Z,9.65
2022-08-30T20:11:28.494Z,9.98
2022-08-30T20:13:55.443Z,9.30
2022-08-30T20:16:33.167Z,9.57
2022-08-30T20:19:06.154Z,10.00
2022-08-30T20:21:33.333Z,9.75
2022-08-30T20:24:00.935Z,9.23
2022-08-30T20:26:33.470Z,9.90
2022-08-30T20:29:02.096Z,10.25
2022-08-30T20:31:29.436Z,11.35
2022-08-30T20:33:56.365Z,10.32
2022-08-30T20:36:23.283Z,9.25
2022-08-30T20:38:50.334Z,9.73
2022-08-30T20:41:19.076Z,9.48
2022-08-30T20:43:47.349Z,8.30
2022-08-30T20:46:17.320Z,8.52
2022-08-30T20:48:45.584Z,8.20
2022-08-30T20:51:15.730Z,9.55
2022-08-30T20:53:43.775Z,9.07
2022-08-30T20:56:15.504Z,8.00
2022-08-30T20:58:42.609Z,9.00
2022-08-30T21:01:11.915Z,8.13
2022-08-30T21:03:40.941Z,8.45
2022-08-30T21:06:08.031Z,7.28
2022-08-30T21:08:35.215Z,8.23
2022-08-30T21:11:02.123Z,8.88
2022-08-30T21:13:29.293Z,8.38
2022-08-30T21:16:00.661Z,8.02
2022-08-30T21:18:33.032Z,8.48
2022-08-30T21:21:21.360Z,9.88
2022-08-30T21:23:49.530Z,9.13
2022-08-30T21:26:17.484Z,9.05
2022-08-30T21:28:47.922Z,8.27
2022-08-30T21:31:17.931Z,8.52
2022-08-30T21:33:46.734Z,8.90
2022-08-30T21:36:32.395Z,9.75
2022-08-30T21:39:00.719Z,9.70
2022-08-30T21:41:29.587Z,9.60
2022-08-30T21:43:58.116Z,9.07
2022-08-30T21:46:26.274Z,9.45
2022-08-30T21:48:54.233Z,10.02
2022-08-30T21:51:21.490Z,11.82
2022-08-30T21:53:48.904Z,11.32
2022-08-30T21:56:21.732Z,11.52
2022-08-30T21:58:49.846Z,11.30
2022-08-30T22:01:25.443Z,12.00
2022-08-30T22:03:54.871Z,12.10
2022-08-30T22:06:25.239Z,12.80
2022-08-30T22:09:01.211Z,12.57
2022-08-30T22:11:31.142Z,12.82
2022-08-30T22:13:58.265Z,12.48
2022-08-30T22:16:25.975Z,14.00
2022-08-30T22:18:53.093Z,14.18
2022-08-30T22:21:24.064Z,16.02
2022-08-30T22:23:51.484Z,14.82
2022-08-30T22:26:20.251Z,14.75
2022-08-30T22:28:47.929Z,15.32
2022-08-30T22:31:16.234Z,14.35
2022-08-30T22:33:44.789Z,13.25
2022-08-30T22:36:18.223Z,13.38
2022-08-30T22:38:45.243Z,13.35
2022-08-30T22:41:15.263Z,12.65
2022-08-30T22:43:42.704Z,12.40
2022-08-30T22:46:11.603Z,10.77
2022-08-30T22:48:43.362Z,11.32
2022-08-30T22:51:11.294Z,11.35
2022-08-30T22:53:38.475Z,11.20
2022-08-30T22:56:17.927Z,10.75
2022-08-30T22:58:45.435Z,11.13
2022-08-30T23:01:19.866Z,11.43
2022-08-30T23:03:46.882Z,10.88
2022-08-30T23:06:14.279Z,10.40
2022-08-30T23:08:41.147Z,12.20
2022-08-30T23:11:08.030Z,11.40
2022-08-30T23:13:35.358Z,11.85
2022-08-30T23:16:05.262Z,11.10
2022-08-30T23:18:33.080Z,11.98
2022-08-30T23:21:12.808Z,12.05
2022-08-30T23:23:58.632Z,10.75
2022-08-30T23:26:44.779Z,11.27
2022-08-30T23:29:30.366Z,11.93
2022-08-30T23:32:16.257Z,11.57
2022-08-30T23:35:02.263Z,12.75
2022-08-30T23:37:49.332Z,11.05
2022-08-30T23:40:40.758Z,11.60
2022-08-30T23:43:27.709Z,11.35
2022-08-30T23:46:19.050Z,9.93
2022-08-30T23:49:06.614Z,9.90
2022-08-30T23:51:52.365Z,9.75
2022-08-30T23:54:38.065Z,9.75
2022-08-30T23:57:24.229Z,9.10
